Recep Reis 1 — TCBZ7 — position and weather

sailwx.info

Track history (hours):
 
Tides and Currents Weather Stations Pressure Air Temp Water Temp Dewpoint Dewpoint Depression Visibility Wind Speed Wind Dir Waves Ship Positions

Recep Reis 1

Last reported at 2018-Feb-11 13:11 UTC. Time now 2018-Feb-17 19:43 UTC.
Position N 40°44' E 029°27'.

Length 75 m; draft 5 m.

Type: Cargo ship. MMSI: 271002215.

Date/timePositionNaut miles runAvg speedWind from/ knotsBaromVisibWave heightAir tempDewpointWater temp
2018-Feb-11 13:11N 40°44' E 029°27'2 9.2
2018-Feb-11 13:00N 40°44' E 029°24'4 7.8
2018-Feb-11 12:30N 40°44' E 029°19'5 9.6
2018-Feb-11 12:00N 40°46' E 029°13'5 9.8
2018-Feb-11 11:30N 40°47' E 029°07'7 9.8
2018-Feb-11 10:45N 40°51' E 028°59'  
2018-Feb-09 02:00N 46°19' E 030°40'0 0.0
2018-Feb-09 01:01N 46°19' E 030°40'0 0.0
2018-Feb-09 00:00N 46°19' E 030°40'  
2018-Feb-02 02:31N 40°56' E 029°01'3 8.1
2018-Feb-02 02:09N 40°55' E 029°05'1 8.4
2018-Feb-02 01:59N 40°54' E 029°06'3 6.0
2018-Feb-02 01:24N 40°52' E 029°10'3 6.6
2018-Feb-02 01:00N 40°50' E 029°09'6 9.5
2018-Feb-02 00:25N 40°46' E 029°03'510.0
2018-Feb-01 23:52N 40°42' E 028°58'  
Track history (hours):
 
Tides and Currents Weather Stations Pressure Air Temp Water Temp Dewpoint Dewpoint Depression Visibility Wind Speed Wind Dir Waves Ship Positions

Recep Reis 1

Last reported at 2018-Feb-11 13:11 UTC. Time now 2018-Feb-17 19:43 UTC.
Position N 40°44' E 029°27'.

Length 75 m; draft 5 m.

Type: Cargo ship. MMSI: 271002215.

Date/timePositionNaut miles runAvg speedWind from/ knotsBaromVisibWave heightAir tempDewpointWater temp
2018-Feb-11 13:11N 40°44' E 029°27'2 9.2
2018-Feb-11 13:00N 40°44' E 029°24'4 7.8
2018-Feb-11 12:30N 40°44' E 029°19'5 9.6
2018-Feb-11 12:00N 40°46' E 029°13'5 9.8
2018-Feb-11 11:30N 40°47' E 029°07'7 9.8
2018-Feb-11 10:45N 40°51' E 028°59'  
2018-Feb-09 02:00N 46°19' E 030°40'0 0.0
2018-Feb-09 01:01N 46°19' E 030°40'0 0.0
2018-Feb-09 00:00N 46°19' E 030°40'  
2018-Feb-02 02:31N 40°56' E 029°01'3 8.1
2018-Feb-02 02:09N 40°55' E 029°05'1 8.4
2018-Feb-02 01:59N 40°54' E 029°06'3 6.0
2018-Feb-02 01:24N 40°52' E 029°10'3 6.6
2018-Feb-02 01:00N 40°50' E 029°09'6 9.5
2018-Feb-02 00:25N 40°46' E 029°03'510.0
2018-Feb-01 23:52N 40°42' E 028°58'  

Dump ship's entire track history